createdAt,value
2019-04-14T00:01:17.253Z,2.60
2019-04-14T00:04:07.261Z,2.60
2019-04-14T00:06:37.902Z,2.60
2019-04-14T00:09:09.674Z,2.60
2019-04-14T00:11:44.235Z,2.60
2019-04-14T00:14:14.173Z,2.60
2019-04-14T00:16:44.498Z,2.60
2019-04-14T00:19:13.145Z,2.60
2019-04-14T00:21:41.770Z,2.70
2019-04-14T00:24:11.574Z,2.70
2019-04-14T00:26:40.284Z,2.70
2019-04-14T00:29:09.024Z,2.80
2019-04-14T00:31:37.623Z,2.80
2019-04-14T00:34:18.103Z,2.90
2019-04-14T00:36:48.428Z,3.00
2019-04-14T00:39:18.699Z,3.00
2019-04-14T00:41:55.539Z,3.00
2019-04-14T00:44:39.061Z,3.00
2019-04-14T00:47:19.936Z,3.00
2019-04-14T00:49:48.800Z,3.10
2019-04-14T00:52:18.865Z,3.10
2019-04-14T00:54:47.813Z,3.00
2019-04-14T00:57:16.656Z,2.90
2019-04-14T00:59:46.290Z,2.80
2019-04-14T01:02:15.028Z,2.80
2019-04-14T01:04:46.622Z,2.90
2019-04-14T01:07:15.134Z,2.80
2019-04-14T01:09:44.234Z,2.70
2019-04-14T01:12:12.994Z,2.70
2019-04-14T01:14:41.636Z,2.70
2019-04-14T01:17:11.268Z,2.60
2019-04-14T01:19:41.656Z,2.60
2019-04-14T01:22:10.371Z,2.60
2019-04-14T01:24:38.900Z,2.70
2019-04-14T01:27:08.133Z,2.70
2019-04-14T01:29:36.791Z,2.70
2019-04-14T01:32:06.518Z,2.70
2019-04-14T01:34:35.520Z,2.70
2019-04-14T01:37:05.152Z,2.70
2019-04-14T01:39:34.920Z,2.70
2019-04-14T01:42:04.841Z,2.70
2019-04-14T01:44:33.757Z,2.60
2019-04-14T01:47:03.094Z,2.60
2019-04-14T01:49:31.874Z,2.60
2019-04-14T01:52:18.842Z,2.60
2019-04-14T01:54:56.079Z,2.60
2019-04-14T01:57:35.243Z,2.50
2019-04-14T02:00:18.451Z,2.40
2019-04-14T02:02:47.123Z,2.40
2019-04-14T02:05:16.727Z,2.50
2019-04-14T02:07:45.577Z,2.50
2019-04-14T02:10:15.128Z,2.50
2019-04-14T02:12:45.171Z,2.50
2019-04-14T02:15:17.727Z,2.50
2019-04-14T02:17:46.116Z,2.50
2019-04-14T02:20:14.949Z,2.50
2019-04-14T02:22:44.092Z,2.40
2019-04-14T02:25:14.174Z,2.30
2019-04-14T02:27:43.004Z,2.30
2019-04-14T02:30:15.950Z,2.30
2019-04-14T02:38:13.784Z,2.30
2019-04-14T02:40:49.216Z,2.20
2019-04-14T02:43:19.715Z,2.10
2019-04-14T02:45:44.634Z,2.10
2019-04-14T02:50:43.684Z,2.10
2019-04-14T02:53:15.179Z,2.10
2019-04-14T02:55:42.532Z,2.10
2019-04-14T03:03:16.060Z,2.10
2019-04-14T03:05:44.355Z,2.10
2019-04-14T03:08:22.239Z,2.10
2019-04-14T03:13:27.075Z,2.10
2019-04-14T03:15:48.260Z,2.10
2019-04-14T03:18:40.494Z,2.10
2019-04-14T03:21:30.606Z,2.00
2019-04-14T03:23:57.973Z,1.90
2019-04-14T03:26:30.618Z,1.90
2019-04-14T03:29:21.187Z,1.80
2019-04-14T03:39:26.946Z,1.90
2019-04-14T03:41:56.853Z,1.90
2019-04-14T03:47:08.813Z,1.90
2019-04-14T03:49:26.931Z,1.90
2019-04-14T03:54:15.917Z,1.90
2019-04-14T03:56:51.430Z,1.90
2019-04-14T03:59:21.653Z,2.00
2019-04-14T04:01:50.579Z,2.10
2019-04-14T04:04:20.427Z,2.10
2019-04-14T04:06:49.219Z,2.20
2019-04-14T04:09:19.303Z,2.20
2019-04-14T04:11:47.920Z,2.30
2019-04-14T04:14:16.494Z,2.30
2019-04-14T04:17:03.649Z,2.30
2019-04-14T04:19:36.937Z,2.30
2019-04-14T04:22:13.029Z,2.30
2019-04-14T04:24:59.276Z,2.30
2019-04-14T04:27:44.537Z,2.20
2019-04-14T04:30:18.675Z,2.20
2019-04-14T04:32:49.407Z,2.20
2019-04-14T04:35:19.684Z,2.20
2019-04-14T04:37:52.814Z,2.20
2019-04-14T04:40:27.051Z,2.20
2019-04-14T04:42:56.842Z,2.10
2019-04-14T04:45:25.717Z,2.10
2019-04-14T04:47:55.535Z,2.10
2019-04-14T04:50:24.198Z,2.10
2019-04-14T04:52:53.933Z,2.00
2019-04-14T04:55:22.660Z,2.00
2019-04-14T04:57:52.321Z,2.00
2019-04-14T05:00:22.164Z,2.00
2019-04-14T05:02:51.017Z,1.90
2019-04-14T05:05:56.241Z,1.90
2019-04-14T05:08:26.191Z,1.90
2019-04-14T05:10:59.008Z,1.80
2019-04-14T05:13:29.112Z,1.70
2019-04-14T05:15:57.893Z,1.80
2019-04-14T05:18:26.834Z,1.90
2019-04-14T05:20:55.675Z,2.00
2019-04-14T05:23:25.530Z,2.10
2019-04-14T05:25:55.943Z,2.20
2019-04-14T05:28:24.741Z,2.30
2019-04-14T05:30:54.587Z,2.30
2019-04-14T05:33:23.354Z,2.40
2019-04-14T05:35:53.093Z,2.60
2019-04-14T05:38:21.814Z,2.70
2019-04-14T05:40:51.803Z,2.80
2019-04-14T05:43:33.143Z,2.80
2019-04-14T05:45:50.906Z,2.80
2019-04-14T05:48:20.441Z,2.80
2019-04-14T05:50:49.090Z,2.90
2019-04-14T05:53:17.717Z,2.90
2019-04-14T05:55:46.307Z,2.90
2019-04-14T05:58:14.860Z,3.00
2019-04-14T06:00:46.270Z,3.00
2019-04-14T06:03:14.621Z,3.10
2019-04-14T06:05:43.372Z,3.20
2019-04-14T06:08:12.027Z,3.10
2019-04-14T06:10:40.601Z,3.20
2019-04-14T06:13:11.704Z,3.40
2019-04-14T06:15:39.739Z,3.50
2019-04-14T06:18:08.436Z,3.60
2019-04-14T06:20:37.085Z,3.70
2019-04-14T06:23:05.719Z,3.80
2019-04-14T06:25:36.360Z,4.00
2019-04-14T06:28:04.806Z,4.10
2019-04-14T06:30:37.391Z,4.00
2019-04-14T06:33:07.681Z,4.10
2019-04-14T06:35:54.407Z,4.20
2019-04-14T06:38:25.004Z,4.20
2019-04-14T06:40:55.256Z,4.30
2019-04-14T06:43:23.900Z,4.30
2019-04-14T06:45:52.501Z,4.40
2019-04-14T06:48:21.128Z,4.50
2019-04-14T06:50:49.703Z,4.40
2019-04-14T06:53:18.279Z,4.40
2019-04-14T06:55:46.951Z,4.40
2019-04-14T06:58:15.441Z,4.40
2019-04-14T07:00:44.229Z,4.40
2019-04-14T07:03:12.906Z,4.40
2019-04-14T07:05:41.605Z,4.50
2019-04-14T07:08:10.115Z,4.60
2019-04-14T07:10:38.609Z,4.70
2019-04-14T07:13:07.237Z,4.80
2019-04-14T07:15:35.920Z,4.90
2019-04-14T07:18:04.483Z,4.90
2019-04-14T07:20:33.083Z,4.90
2019-04-14T07:23:01.693Z,5.00
2019-04-14T07:25:30.255Z,5.10
2019-04-14T07:28:00.079Z,5.10
2019-04-14T07:30:33.066Z,5.20
2019-04-14T07:33:21.369Z,5.30
2019-04-14T07:35:51.567Z,5.30
2019-04-14T07:38:30.899Z,5.50
2019-04-14T07:41:06.834Z,5.60
2019-04-14T07:43:37.120Z,5.50
2019-04-14T07:46:23.848Z,5.40
2019-04-14T07:48:54.077Z,5.30
2019-04-14T07:51:39.590Z,5.20
2019-04-14T07:54:12.693Z,5.10
2019-04-14T07:56:42.966Z,5.00
2019-04-14T07:59:19.463Z,5.00
2019-04-14T08:01:52.861Z,5.00
2019-04-14T08:04:23.079Z,5.10
2019-04-14T08:06:53.379Z,5.30
2019-04-14T08:09:22.154Z,5.50
2019-04-14T08:11:50.846Z,5.70
2019-04-14T08:14:19.536Z,5.80
2019-04-14T08:16:48.180Z,5.90
2019-04-14T08:19:16.755Z,5.80
2019-04-14T08:21:45.383Z,5.80
2019-04-14T08:24:13.950Z,5.90
2019-04-14T08:26:42.538Z,6.00
2019-04-14T08:29:11.156Z,6.10
2019-04-14T08:31:39.966Z,6.00
2019-04-14T08:34:08.584Z,6.10
2019-04-14T08:36:37.262Z,6.10
2019-04-14T08:39:07.225Z,6.10
2019-04-14T08:41:40.480Z,6.20
2019-04-14T08:44:10.771Z,6.40
2019-04-14T08:46:40.970Z,6.70
2019-04-14T08:49:26.721Z,7.00
2019-04-14T08:52:05.718Z,7.20
2019-04-14T08:54:45.216Z,7.30
2019-04-14T08:57:18.346Z,7.20
2019-04-14T09:00:03.864Z,7.50
2019-04-14T09:02:34.173Z,7.90
2019-04-14T09:05:06.871Z,8.10
2019-04-14T09:07:37.088Z,7.70
2019-04-14T09:10:17.512Z,7.80
2019-04-14T09:12:53.532Z,7.70
2019-04-14T09:15:22.229Z,7.70
2019-04-14T09:17:51.052Z,7.80
2019-04-14T09:20:19.727Z,7.60
2019-04-14T09:22:48.250Z,7.90
2019-04-14T09:25:16.830Z,8.10
2019-04-14T09:27:45.493Z,8.30
2019-04-14T09:30:15.225Z,8.50
2019-04-14T09:32:43.787Z,8.60
2019-04-14T09:35:12.434Z,8.70
2019-04-14T09:37:41.052Z,8.60
2019-04-14T09:40:09.782Z,8.40
2019-04-14T09:42:38.520Z,8.40
2019-04-14T09:45:07.645Z,8.40
2019-04-14T09:47:36.215Z,8.60
2019-04-14T09:50:06.266Z,8.50
2019-04-14T09:52:34.882Z,8.50
2019-04-14T09:55:04.217Z,8.60
2019-04-14T09:57:32.749Z,8.60
2019-04-14T10:00:01.377Z,8.80
2019-04-14T10:02:30.106Z,8.80
2019-04-14T10:04:58.765Z,9.00
2019-04-14T10:07:27.425Z,8.70
2019-04-14T10:09:56.084Z,8.50
2019-04-14T10:12:24.833Z,8.50
2019-04-14T10:14:53.428Z,8.60
2019-04-14T10:17:22.010Z,8.80
2019-04-14T10:19:50.700Z,8.70
2019-04-14T10:22:19.296Z,8.80
2019-04-14T10:24:48.060Z,8.70
2019-04-14T10:27:16.777Z,8.60
2019-04-14T10:29:45.337Z,8.40
2019-04-14T10:32:14.007Z,8.40
2019-04-14T10:34:42.600Z,8.40
2019-04-14T10:37:11.320Z,8.40
2019-04-14T10:39:39.903Z,8.60
2019-04-14T10:42:08.457Z,9.30
2019-04-14T10:44:36.961Z,9.70
2019-04-14T10:47:05.798Z,9.80
2019-04-14T10:49:34.329Z,9.80
2019-04-14T10:52:02.902Z,9.90
2019-04-14T10:54:31.545Z,10.20
2019-04-14T10:57:01.173Z,10.50
2019-04-14T10:59:30.059Z,10.40
2019-04-14T11:01:58.673Z,10.40
2019-04-14T11:04:27.256Z,10.40
2019-04-14T11:07:00.565Z,10.30
2019-04-14T11:09:29.125Z,10.20
2019-04-14T11:11:57.623Z,10.10
2019-04-14T11:14:26.125Z,9.90
2019-04-14T11:16:54.768Z,9.70
2019-04-14T11:19:23.458Z,9.70
2019-04-14T11:21:52.002Z,9.70
2019-04-14T11:24:20.650Z,9.70
2019-04-14T11:26:49.343Z,9.40
2019-04-14T11:29:17.978Z,9.20
2019-04-14T11:31:51.115Z,9.20
2019-04-14T11:34:37.417Z,9.30
2019-04-14T11:37:07.813Z,9.90
2019-04-14T11:39:36.577Z,11.30
2019-04-14T11:42:05.292Z,11.50
2019-04-14T11:44:34.053Z,11.30
2019-04-14T11:47:03.598Z,11.10
2019-04-14T11:49:32.089Z,10.80
2019-04-14T11:52:00.737Z,10.60
2019-04-14T11:54:29.475Z,10.50
2019-04-14T11:56:58.103Z,10.60
2019-04-14T11:59:28.561Z,10.80
2019-04-14T12:02:13.840Z,11.00
2019-04-14T12:04:46.929Z,10.80
2019-04-14T12:07:19.931Z,10.50
2019-04-14T12:09:52.945Z,10.30
2019-04-14T12:12:21.545Z,10.10
2019-04-14T12:14:50.132Z,10.20
2019-04-14T12:17:18.919Z,10.40
2019-04-14T12:19:47.657Z,10.50
2019-04-14T12:22:16.294Z,10.60
2019-04-14T12:24:44.792Z,10.70
2019-04-14T12:27:13.447Z,10.60
2019-04-14T12:29:43.249Z,10.60
2019-04-14T12:32:12.832Z,10.60
2019-04-14T12:34:41.529Z,10.80
2019-04-14T12:37:10.044Z,10.90
2019-04-14T12:39:38.540Z,11.00
2019-04-14T12:42:23.663Z,11.20
2019-04-14T12:44:56.864Z,11.30
2019-04-14T12:47:40.065Z,11.50
2019-04-14T12:50:08.470Z,11.40
2019-04-14T12:52:37.035Z,11.70
2019-04-14T12:55:06.929Z,11.90
2019-04-14T12:57:49.136Z,12.00
2019-04-14T13:00:36.147Z,12.30
2019-04-14T13:03:04.818Z,12.20
2019-04-14T13:05:33.480Z,12.30
2019-04-14T13:08:01.970Z,12.30
2019-04-14T13:10:30.627Z,12.20
2019-04-14T13:12:59.252Z,12.80
2019-04-14T13:15:27.835Z,13.60
2019-04-14T13:17:56.629Z,14.60
2019-04-14T13:20:25.210Z,15.00
2019-04-14T13:22:53.876Z,14.90
2019-04-14T13:25:22.704Z,14.50
2019-04-14T13:27:51.727Z,13.90
2019-04-14T13:30:25.327Z,13.50
2019-04-14T13:32:53.832Z,13.10
2019-04-14T13:35:22.635Z,12.80
2019-04-14T13:37:51.269Z,12.50
2019-04-14T13:40:20.085Z,12.10
2019-04-14T13:42:48.754Z,12.00
2019-04-14T13:45:17.376Z,11.90
2019-04-14T13:47:46.015Z,12.50
2019-04-14T13:50:14.682Z,12.40
2019-04-14T13:52:47.178Z,12.50
2019-04-14T13:55:13.890Z,12.60
2019-04-14T13:57:42.711Z,12.70
2019-04-14T14:00:13.885Z,12.90
2019-04-14T14:02:43.267Z,13.30
2019-04-14T14:05:12.081Z,13.70
2019-04-14T14:07:40.669Z,13.90
2019-04-14T14:10:10.275Z,14.00
2019-04-14T14:12:46.676Z,14.50
2019-04-14T14:15:33.965Z,15.70
2019-04-14T14:18:09.667Z,16.20
2019-04-14T14:20:42.706Z,15.80
2019-04-14T14:23:15.791Z,15.00
2019-04-14T14:25:46.068Z,14.30
2019-04-14T14:28:14.700Z,13.70
2019-04-14T14:30:43.345Z,13.30
2019-04-14T14:33:11.835Z,12.90
2019-04-14T14:35:40.565Z,12.50
2019-04-14T14:38:09.131Z,12.20
2019-04-14T14:40:37.773Z,12.10
2019-04-14T14:43:06.433Z,12.00
2019-04-14T14:45:42.749Z,12.00
2019-04-14T14:48:18.850Z,12.10
2019-04-14T14:50:52.040Z,12.00
2019-04-14T14:53:22.298Z,12.20
2019-04-14T14:55:51.093Z,13.30
2019-04-14T14:58:19.606Z,14.20
2019-04-14T15:00:48.175Z,15.00
2019-04-14T15:03:16.811Z,15.70
2019-04-14T15:05:45.395Z,16.10
2019-04-14T15:08:14.147Z,16.50
2019-04-14T15:10:42.810Z,16.90
2019-04-14T15:13:11.451Z,17.00
2019-04-14T15:15:40.190Z,17.10
2019-04-14T15:18:08.912Z,17.20
2019-04-14T15:20:37.533Z,17.20
2019-04-14T15:23:06.221Z,17.30
2019-04-14T15:25:34.922Z,17.20
2019-04-14T15:28:03.659Z,16.90
2019-04-14T15:30:32.378Z,16.60
2019-04-14T15:33:00.935Z,16.70
2019-04-14T15:35:29.717Z,16.70
2019-04-14T15:37:58.281Z,16.60
2019-04-14T15:40:26.844Z,16.70
2019-04-14T15:42:55.500Z,16.70
2019-04-14T15:45:24.217Z,16.60
2019-04-14T15:47:52.910Z,16.60
2019-04-14T15:50:21.724Z,16.90
2019-04-14T15:52:50.376Z,16.90
2019-04-14T15:55:19.767Z,16.40
2019-04-14T15:57:50.051Z,16.00
2019-04-14T16:00:20.447Z,15.70
2019-04-14T16:03:06.914Z,15.70
2019-04-14T16:05:40.301Z,15.70
2019-04-14T16:08:10.552Z,15.70
2019-04-14T16:10:46.700Z,15.70
2019-04-14T16:13:16.903Z,15.70
2019-04-14T16:16:03.681Z,15.80
2019-04-14T16:18:47.075Z,15.80
2019-04-14T16:21:15.909Z,15.70
2019-04-14T16:23:50.458Z,15.60
2019-04-14T16:26:25.647Z,15.40
2019-04-14T16:29:13.971Z,15.50
2019-04-14T16:31:53.365Z,15.70
2019-04-14T16:34:38.566Z,15.40
2019-04-14T16:37:07.303Z,15.40
2019-04-14T16:39:35.962Z,15.50
2019-04-14T16:42:04.673Z,15.30
2019-04-14T16:44:33.269Z,14.90
2019-04-14T16:47:01.910Z,14.70
2019-04-14T16:49:30.631Z,14.60
2019-04-14T16:52:00.909Z,14.50
2019-04-14T16:54:40.383Z,14.50
2019-04-14T16:57:29.173Z,14.40
2019-04-14T16:59:57.993Z,14.20
2019-04-14T17:02:26.582Z,14.00
2019-04-14T17:04:55.146Z,13.80
2019-04-14T17:07:23.887Z,13.60
2019-04-14T17:09:52.442Z,13.60
2019-04-14T17:12:21.056Z,13.60
2019-04-14T17:14:55.229Z,13.60
2019-04-14T17:17:31.467Z,13.50
2019-04-14T17:20:07.412Z,13.40
2019-04-14T17:22:37.645Z,13.40
2019-04-14T17:25:12.061Z,13.40
2019-04-14T17:27:48.334Z,13.30
2019-04-14T17:30:19.255Z,13.10
2019-04-14T17:33:04.897Z,12.90
2019-04-14T17:35:35.021Z,12.70
2019-04-14T17:38:08.354Z,12.50
2019-04-14T17:40:41.464Z,12.20
2019-04-14T17:43:11.665Z,12.10
2019-04-14T17:45:41.895Z,11.90
2019-04-14T17:48:12.173Z,11.80
2019-04-14T17:50:58.571Z,11.60
2019-04-14T17:53:37.552Z,11.40
2019-04-14T17:56:07.833Z,11.20
2019-04-14T17:58:38.025Z,11.00
2019-04-14T18:01:08.202Z,10.90
2019-04-14T18:03:50.521Z,10.80
2019-04-14T18:06:26.605Z,10.80
2019-04-14T18:08:59.766Z,10.60
2019-04-14T18:11:30.120Z,10.50
2019-04-14T18:14:00.326Z,10.50
2019-04-14T18:16:39.054Z,10.40
2019-04-14T18:19:15.067Z,10.40
2019-04-14T18:21:44.362Z,10.30
2019-04-14T18:24:13.096Z,10.20
2019-04-14T18:26:41.737Z,10.10
2019-04-14T18:29:30.023Z,10.00
2019-04-14T18:32:00.297Z,9.90
2019-04-14T18:34:39.336Z,9.80
2019-04-14T18:37:27.719Z,9.70
2019-04-14T18:40:09.864Z,9.60
2019-04-14T18:42:58.636Z,9.40
2019-04-14T18:45:32.119Z,9.30
2019-04-14T18:48:04.994Z,9.20
2019-04-14T18:50:38.090Z,9.20
2019-04-14T18:53:10.693Z,9.20
2019-04-14T18:55:47.009Z,9.20
2019-04-14T18:58:19.970Z,9.20
2019-04-14T19:00:50.184Z,9.20
2019-04-14T19:03:18.804Z,9.20
2019-04-14T19:05:47.479Z,9.10
2019-04-14T19:08:16.032Z,9.00
2019-04-14T19:10:46.366Z,9.00
2019-04-14T19:13:25.559Z,9.00
2019-04-14T19:15:55.693Z,8.90
2019-04-14T19:18:26.052Z,8.90
2019-04-14T19:20:56.244Z,8.90
2019-04-14T19:23:24.818Z,8.80
2019-04-14T19:25:53.384Z,8.80
2019-04-14T19:28:21.978Z,8.80
2019-04-14T19:30:50.470Z,8.70
2019-04-14T19:33:19.068Z,8.70
2019-04-14T19:35:47.616Z,8.90
2019-04-14T19:38:16.197Z,9.00
2019-04-14T19:40:44.783Z,9.10
2019-04-14T19:43:23.127Z,9.10
2019-04-14T19:45:43.582Z,9.00
2019-04-14T19:48:12.221Z,9.00
2019-04-14T19:50:40.882Z,8.90
2019-04-14T19:53:09.510Z,8.90
2019-04-14T19:55:38.145Z,8.70
2019-04-14T19:58:06.720Z,8.60
2019-04-14T20:00:35.220Z,8.60
2019-04-14T20:03:03.935Z,8.50
2019-04-14T20:05:32.432Z,8.40
2019-04-14T20:08:01.021Z,8.40
2019-04-14T20:10:29.578Z,8.30
2019-04-14T20:12:58.278Z,8.30
2019-04-14T20:15:28.513Z,8.30
2019-04-14T20:18:01.854Z,8.30
2019-04-14T20:20:48.104Z,8.30
2019-04-14T20:23:30.064Z,8.20
2019-04-14T20:26:00.286Z,8.10
2019-04-14T20:28:30.568Z,8.10
2019-04-14T20:31:18.603Z,8.00
2019-04-14T20:33:47.234Z,8.00
2019-04-14T20:36:15.759Z,8.00
2019-04-14T20:38:44.318Z,8.00
2019-04-14T20:41:12.953Z,7.90
2019-04-14T20:43:41.465Z,7.90
2019-04-14T20:46:10.169Z,7.90
2019-04-14T20:48:38.762Z,7.80
2019-04-14T20:51:07.327Z,7.80
2019-04-14T20:53:35.982Z,7.80
2019-04-14T20:56:04.624Z,7.70
2019-04-14T20:58:33.275Z,7.60
2019-04-14T21:01:02.019Z,7.50
2019-04-14T21:03:32.147Z,7.50
2019-04-14T21:06:05.109Z,7.50
2019-04-14T21:08:35.273Z,7.40
2019-04-14T21:11:08.532Z,7.30
2019-04-14T21:13:47.814Z,7.30
2019-04-14T21:16:30.143Z,7.40
2019-04-14T21:19:09.336Z,7.30
2019-04-14T21:21:39.615Z,7.30
2019-04-14T21:24:28.020Z,7.30
2019-04-14T21:26:58.248Z,7.30
2019-04-14T21:29:40.196Z,7.20
2019-04-14T21:32:16.591Z,7.10
2019-04-14T21:34:58.720Z,7.10
2019-04-14T21:37:46.533Z,7.00
2019-04-14T21:40:31.567Z,6.90
2019-04-14T21:43:00.171Z,6.90
2019-04-14T21:45:28.806Z,6.90
2019-04-14T21:47:57.500Z,6.90
2019-04-14T21:50:26.008Z,6.80
2019-04-14T21:52:54.629Z,6.80
2019-04-14T21:55:23.267Z,6.80
2019-04-14T21:57:53.479Z,6.70
2019-04-14T22:00:26.765Z,6.70
2019-04-14T22:03:13.347Z,6.60
2019-04-14T22:05:46.680Z,6.60
2019-04-14T22:08:19.709Z,6.50
2019-04-14T22:11:08.128Z,6.30
2019-04-14T22:13:36.755Z,6.30
2019-04-14T22:16:05.545Z,6.20
2019-04-14T22:18:34.171Z,6.10
2019-04-14T22:21:02.742Z,6.10
2019-04-14T22:23:31.401Z,6.10
2019-04-14T22:26:00.157Z,6.00
2019-04-14T22:28:28.745Z,6.00
2019-04-14T22:30:57.310Z,6.00
2019-04-14T22:33:25.966Z,6.00
2019-04-14T22:35:54.462Z,6.00
2019-04-14T22:38:23.264Z,5.90
2019-04-14T22:40:51.842Z,5.80
2019-04-14T22:43:20.397Z,5.80
2019-04-14T22:45:49.062Z,5.80
2019-04-14T22:48:17.625Z,5.90
2019-04-14T22:50:46.260Z,6.00
2019-04-14T22:53:14.826Z,6.00
2019-04-14T22:55:43.384Z,6.00
2019-04-14T22:58:11.987Z,6.00
2019-04-14T23:00:45.051Z,6.10
2019-04-14T23:03:16.125Z,6.10
2019-04-14T23:05:46.412Z,6.10
2019-04-14T23:08:19.560Z,6.10
2019-04-14T23:11:07.796Z,6.10
2019-04-14T23:13:50.129Z,6.10
2019-04-14T23:16:36.324Z,6.10
2019-04-14T23:19:09.334Z,6.00
2019-04-14T23:21:42.211Z,6.00
2019-04-14T23:24:12.492Z,5.90
2019-04-14T23:26:51.864Z,5.90
2019-04-14T23:29:11.428Z,5.80
2019-04-14T23:31:39.992Z,5.70
2019-04-14T23:34:08.651Z,5.70
2019-04-14T23:36:37.319Z,5.70
2019-04-14T23:39:08.968Z,5.60
2019-04-14T23:41:36.722Z,5.60
2019-04-14T23:44:05.363Z,5.60
2019-04-14T23:46:33.951Z,5.50
2019-04-14T23:49:02.798Z,5.40
2019-04-14T23:51:31.427Z,5.30
2019-04-14T23:54:00.142Z,5.30
2019-04-14T23:56:28.795Z,5.30
2019-04-14T23:58:57.644Z,5.30
